sensor_id;sensor_type;location;lat;lon;timestamp;pressure;altitude;pressure_sealevel;temperature;humidity
15932;BME280;8065;49.520;11.284;2022-11-15T00:01:18;97411.91;;;10.25;85.67
15932;BME280;8065;49.520;11.284;2022-11-15T00:03:44;97406.59;;;10.25;84.72
15932;BME280;8065;49.520;11.284;2022-11-15T00:06:11;97409.38;;;10.28;84.54
15932;BME280;8065;49.520;11.284;2022-11-15T00:08:38;97410.34;;;10.24;85.80
15932;BME280;8065;49.520;11.284;2022-11-15T00:11:04;97408.13;;;10.17;84.95
15932;BME280;8065;49.520;11.284;2022-11-15T00:13:31;97404.38;;;10.18;85.07
15932;BME280;8065;49.520;11.284;2022-11-15T00:15:58;97407.97;;;10.13;85.28
15932;BME280;8065;49.520;11.284;2022-11-15T00:18:27;97399.38;;;10.16;85.53
15932;BME280;8065;49.520;11.284;2022-11-15T00:20:54;97407.97;;;10.13;85.51
15932;BME280;8065;49.520;11.284;2022-11-15T00:23:20;97397.69;;;10.21;85.08
15932;BME280;8065;49.520;11.284;2022-11-15T00:25:47;97398.78;;;10.20;85.29
15932;BME280;8065;49.520;11.284;2022-11-15T00:28:20;97393.63;;;10.14;85.25
15932;BME280;8065;49.520;11.284;2022-11-15T00:30:47;97394.88;;;10.08;86.30
15932;BME280;8065;49.520;11.284;2022-11-15T00:33:13;97394.38;;;10.15;85.16
15932;BME280;8065;49.520;11.284;2022-11-15T00:35:41;97397.84;;;10.07;85.92
15932;BME280;8065;49.520;11.284;2022-11-15T00:38:08;97403.13;;;10.15;85.48
15932;BME280;8065;49.520;11.284;2022-11-15T00:40:34;97402.03;;;10.16;85.43
15932;BME280;8065;49.520;11.284;2022-11-15T00:43:01;97400.81;;;10.23;85.25
15932;BME280;8065;49.520;11.284;2022-11-15T00:45:27;97397.97;;;10.28;84.42
15932;BME280;8065;49.520;11.284;2022-11-15T00:47:53;97393.47;;;10.20;84.71
15932;BME280;8065;49.520;11.284;2022-11-15T00:50:20;97398.63;;;10.25;84.71
15932;BME280;8065;49.520;11.284;2022-11-15T00:52:48;97394.88;;;10.26;85.35
15932;BME280;8065;49.520;11.284;2022-11-15T00:55:15;97391.56;;;10.29;85.29
15932;BME280;8065;49.520;11.284;2022-11-15T00:57:42;97392.50;;;10.15;85.42
15932;BME280;8065;49.520;11.284;2022-11-15T01:00:09;97386.75;;;10.13;85.22
15932;BME280;8065;49.520;11.284;2022-11-15T01:02:36;97386.59;;;10.10;85.13
15932;BME280;8065;49.520;11.284;2022-11-15T01:05:03;97389.22;;;10.18;85.46
15932;BME280;8065;49.520;11.284;2022-11-15T01:07:29;97388.63;;;10.22;85.79
15932;BME280;8065;49.520;11.284;2022-11-15T01:09:57;97389.22;;;10.18;84.93
15932;BME280;8065;49.520;11.284;2022-11-15T01:12:23;97386.44;;;10.24;85.39
15932;BME280;8065;49.520;11.284;2022-11-15T01:14:50;97382.38;;;10.17;85.46
15932;BME280;8065;49.520;11.284;2022-11-15T01:17:16;97383.63;;;10.11;85.29
15932;BME280;8065;49.520;11.284;2022-11-15T01:19:43;97378.31;;;10.11;85.92
15932;BME280;8065;49.520;11.284;2022-11-15T01:22:09;97379.56;;;10.14;85.66
15932;BME280;8065;49.520;11.284;2022-11-15T01:24:36;97373.63;;;10.17;85.72
15932;BME280;8065;49.520;11.284;2022-11-15T01:27:04;97368.97;;;10.05;85.37
15932;BME280;8065;49.520;11.284;2022-11-15T01:29:30;97374.28;;;10.05;85.53
15932;BME280;8065;49.520;11.284;2022-11-15T01:31:57;97371.78;;;10.00;85.47
15932;BME280;8065;49.520;11.284;2022-11-15T01:34:23;97375.53;;;9.99;86.39
15932;BME280;8065;49.520;11.284;2022-11-15T01:36:50;97370.84;;;9.96;85.78
15932;BME280;8065;49.520;11.284;2022-11-15T01:39:16;97375.53;;;9.99;85.16
15932;BME280;8065;49.520;11.284;2022-11-15T01:41:43;97366.47;;;10.00;85.58
15932;BME280;8065;49.520;11.284;2022-11-15T01:44:36;97371.94;;;10.04;85.49
15932;BME280;8065;49.520;11.284;2022-11-15T01:47:06;97367.69;;;10.11;85.19
15932;BME280;8065;49.520;11.284;2022-11-15T01:49:38;97368.63;;;10.15;84.43
15932;BME280;8065;49.520;11.284;2022-11-15T01:52:08;97365.34;;;10.10;84.90
15932;BME280;8065;49.520;11.284;2022-11-15T01:54:36;97359.25;;;10.18;85.01
15932;BME280;8065;49.520;11.284;2022-11-15T01:57:04;97353.47;;;10.16;84.90
15932;BME280;8065;49.520;11.284;2022-11-15T01:59:34;97341.59;;;10.13;84.55
15932;BME280;8065;49.520;11.284;2022-11-15T02:02:01;97343.81;;;10.11;85.00
15932;BME280;8065;49.520;11.284;2022-11-15T02:04:28;97340.84;;;10.22;84.58
15932;BME280;8065;49.520;11.284;2022-11-15T02:06:56;97332.41;;;10.20;84.46
15932;BME280;8065;49.520;11.284;2022-11-15T02:09:23;97335.19;;;10.14;84.29
15932;BME280;8065;49.520;11.284;2022-11-15T02:11:50;97331.94;;;10.09;84.52
15932;BME280;8065;49.520;11.284;2022-11-15T02:14:18;97321.19;;;10.05;85.27
15932;BME280;8065;49.520;11.284;2022-11-15T02:16:54;97320.28;;;9.93;84.73
15932;BME280;8065;49.520;11.284;2022-11-15T02:19:44;97323.41;;;9.86;85.23
15932;BME280;8065;49.520;11.284;2022-11-15T02:22:27;97313.31;;;9.71;85.16
15932;BME280;8065;49.520;11.284;2022-11-15T02:25:07;97311.59;;;9.75;84.96
15932;BME280;8065;49.520;11.284;2022-11-15T02:28:10;97305.50;;;9.74;85.40
15932;BME280;8065;49.520;11.284;2022-11-15T02:30:45;97297.25;;;9.59;86.42
15932;BME280;8065;49.520;11.284;2022-11-15T02:33:21;97294.19;;;9.48;87.02
15932;BME280;8065;49.520;11.284;2022-11-15T02:35:57;97297.94;;;9.38;86.41
15932;BME280;8065;49.520;11.284;2022-11-15T02:38:31;97296.38;;;9.37;87.04
15932;BME280;8065;49.520;11.284;2022-11-15T02:41:02;97290.44;;;9.40;86.44
15932;BME280;8065;49.520;11.284;2022-11-15T02:43:38;97291.06;;;9.46;86.77
15932;BME280;8065;49.520;11.284;2022-11-15T02:46:29;97289.19;;;9.46;85.80
15932;BME280;8065;49.520;11.284;2022-11-15T02:49:16;97284.19;;;9.45;86.75
15932;BME280;8065;49.520;11.284;2022-11-15T02:51:44;97284.06;;;9.33;87.85
15932;BME280;8065;49.520;11.284;2022-11-15T02:54:15;97286.25;;;9.22;88.43
15932;BME280;8065;49.520;11.284;2022-11-15T02:56:43;97277.38;;;9.18;87.55
15932;BME280;8065;49.520;11.284;2022-11-15T02:59:23;97281.25;;;9.20;87.52
15932;BME280;8065;49.520;11.284;2022-11-15T03:02:08;97277.81;;;9.29;87.67
15932;BME280;8065;49.520;11.284;2022-11-15T03:04:44;97276.41;;;9.31;86.76
15932;BME280;8065;49.520;11.284;2022-11-15T03:07:14;97269.25;;;9.06;88.30
15932;BME280;8065;49.520;11.284;2022-11-15T03:09:48;97267.25;;;9.03;88.09
15932;BME280;8065;49.520;11.284;2022-11-15T03:12:23;97263.34;;;8.92;87.96
15932;BME280;8065;49.520;11.284;2022-11-15T03:14:55;97252.56;;;8.71;89.10
15932;BME280;8065;49.520;11.284;2022-11-15T03:17:27;97263.66;;;8.81;88.88
15932;BME280;8065;49.520;11.284;2022-11-15T03:19:57;97264.13;;;8.83;89.08
15932;BME280;8065;49.520;11.284;2022-11-15T03:22:27;97259.44;;;8.89;88.66
15932;BME280;8065;49.520;11.284;2022-11-15T03:24:57;97254.13;;;8.80;88.56
15932;BME280;8065;49.520;11.284;2022-11-15T03:27:28;97251.19;;;8.56;89.13
15932;BME280;8065;49.520;11.284;2022-11-15T03:29:58;97256.47;;;8.56;88.77
15932;BME280;8065;49.520;11.284;2022-11-15T03:32:29;97254.91;;;8.55;89.44
15932;BME280;8065;49.520;11.284;2022-11-15T03:35:00;97252.56;;;8.45;89.47
15932;BME280;8065;49.520;11.284;2022-11-15T03:37:31;97263.00;;;8.67;88.44
15932;BME280;8065;49.520;11.284;2022-11-15T03:40:00;97261.00;;;8.64;89.28
15932;BME280;8065;49.520;11.284;2022-11-15T03:42:31;97257.56;;;8.55;88.85
15932;BME280;8065;49.520;11.284;2022-11-15T03:45:05;97252.59;;;8.62;89.25
15932;BME280;8065;49.520;11.284;2022-11-15T03:47:38;97249.16;;;8.62;88.05
15932;BME280;8065;49.520;11.284;2022-11-15T03:50:08;97246.22;;;8.63;88.49
15932;BME280;8065;49.520;11.284;2022-11-15T03:52:37;97247.91;;;8.59;89.21
15932;BME280;8065;49.520;11.284;2022-11-15T03:55:05;97247.59;;;8.52;89.24
15932;BME280;8065;49.520;11.284;2022-11-15T03:57:33;97238.56;;;8.53;88.96
15932;BME280;8065;49.520;11.284;2022-11-15T03:59:59;97239.47;;;8.40;88.85
15932;BME280;8065;49.520;11.284;2022-11-15T04:02:25;97236.69;;;8.45;88.55
15932;BME280;8065;49.520;11.284;2022-11-15T04:04:54;97232.03;;;8.50;88.37
15932;BME280;8065;49.520;11.284;2022-11-15T04:07:21;97234.97;;;8.40;89.29
15932;BME280;8065;49.520;11.284;2022-11-15T04:09:47;97229.69;;;8.49;88.42
15932;BME280;8065;49.520;11.284;2022-11-15T04:12:30;97230.63;;;8.53;88.74
15932;BME280;8065;49.520;11.284;2022-11-15T04:14:59;97231.78;;;8.30;89.44
15932;BME280;8065;49.520;11.284;2022-11-15T04:17:37;97230.69;;;8.22;89.25
15932;BME280;8065;49.520;11.284;2022-11-15T04:20:07;97235.47;;;8.11;90.10
15932;BME280;8065;49.520;11.284;2022-11-15T04:22:53;97237.22;;;8.25;90.19
15932;BME280;8065;49.520;11.284;2022-11-15T04:25:38;97232.84;;;8.11;89.65
15932;BME280;8065;49.520;11.284;2022-11-15T04:28:04;97221.50;;;8.19;89.87
15932;BME280;8065;49.520;11.284;2022-11-15T04:30:31;97221.16;;;8.12;89.89
15932;BME280;8065;49.520;11.284;2022-11-15T04:32:57;97224.94;;;8.29;89.70
15932;BME280;8065;49.520;11.284;2022-11-15T04:35:25;97221.56;;;8.37;89.29
15932;BME280;8065;49.520;11.284;2022-11-15T04:37:52;97229.63;;;8.32;89.14
15932;BME280;8065;49.520;11.284;2022-11-15T04:40:19;97227.66;;;8.46;88.60
15932;BME280;8065;49.520;11.284;2022-11-15T04:42:45;97224.06;;;8.50;87.82
15932;BME280;8065;49.520;11.284;2022-11-15T04:45:12;97220.19;;;8.48;87.68
15932;BME280;8065;49.520;11.284;2022-11-15T04:47:39;97219.72;;;8.46;87.34
15932;BME280;8065;49.520;11.284;2022-11-15T04:50:06;97229.06;;;8.52;87.40
15932;BME280;8065;49.520;11.284;2022-11-15T04:52:34;97226.72;;;8.50;87.97
15932;BME280;8065;49.520;11.284;2022-11-15T04:55:00;97223.31;;;8.59;86.90
15932;BME280;8065;49.520;11.284;2022-11-15T04:57:27;97229.53;;;8.63;87.73
15932;BME280;8065;49.520;11.284;2022-11-15T04:59:53;97229.69;;;8.66;87.27
15932;BME280;8065;49.520;11.284;2022-11-15T05:02:20;97221.28;;;8.64;86.88
15932;BME280;8065;49.520;11.284;2022-11-15T05:04:46;97223.28;;;8.67;86.64
15932;BME280;8065;49.520;11.284;2022-11-15T05:07:12;97214.59;;;8.58;86.21
15932;BME280;8065;49.520;11.284;2022-11-15T05:09:40;97205.69;;;8.54;87.20
15932;BME280;8065;49.520;11.284;2022-11-15T05:12:06;97206.41;;;8.29;87.42
15932;BME280;8065;49.520;11.284;2022-11-15T05:14:33;97202.03;;;8.15;87.32
15932;BME280;8065;49.520;11.284;2022-11-15T05:17:00;97204.78;;;8.02;87.19
15932;BME280;8065;49.520;11.284;2022-11-15T05:19:26;97200.91;;;8.08;87.35
15932;BME280;8065;49.520;11.284;2022-11-15T05:21:53;97202.16;;;8.10;87.96
15932;BME280;8065;49.520;11.284;2022-11-15T05:24:19;97202.66;;;8.12;87.20
15932;BME280;8065;49.520;11.284;2022-11-15T05:26:47;97202.00;;;8.07;88.23
15932;BME280;8065;49.520;11.284;2022-11-15T05:29:13;97201.88;;;8.20;87.54
15932;BME280;8065;49.520;11.284;2022-11-15T05:31:40;97203.75;;;8.20;87.20
15932;BME280;8065;49.520;11.284;2022-11-15T05:34:07;97206.84;;;8.13;88.37
15932;BME280;8065;49.520;11.284;2022-11-15T05:36:36;97208.84;;;7.99;87.62
15932;BME280;8065;49.520;11.284;2022-11-15T05:39:04;97206.19;;;7.99;87.73
15932;BME280;8065;49.520;11.284;2022-11-15T05:41:33;97199.91;;;7.78;88.83
15932;BME280;8065;49.520;11.284;2022-11-15T05:44:05;97203.56;;;7.60;88.89
15932;BME280;8065;49.520;11.284;2022-11-15T05:46:34;97199.25;;;7.64;88.93
15932;BME280;8065;49.520;11.284;2022-11-15T05:49:01;97198.38;;;7.46;90.51
15932;BME280;8065;49.520;11.284;2022-11-15T05:51:29;97190.84;;;7.31;91.04
15932;BME280;8065;49.520;11.284;2022-11-15T05:53:56;97196.94;;;7.40;89.89
15932;BME280;8065;49.520;11.284;2022-11-15T05:56:24;97201.09;;;7.32;90.10
15932;BME280;8065;49.520;11.284;2022-11-15T05:58:52;97195.00;;;7.23;90.31
15932;BME280;8065;49.520;11.284;2022-11-15T06:01:20;97195.84;;;7.10;91.94
15932;BME280;8065;49.520;11.284;2022-11-15T06:03:47;97198.06;;;7.16;91.72
15932;BME280;8065;49.520;11.284;2022-11-15T06:06:14;97200.19;;;7.06;91.18
15932;BME280;8065;49.520;11.284;2022-11-15T06:08:40;97204.72;;;7.14;91.28
15932;BME280;8065;49.520;11.284;2022-11-15T06:11:07;97201.00;;;7.15;90.88
15932;BME280;8065;49.520;11.284;2022-11-15T06:13:34;97200.88;;;7.20;91.09
15932;BME280;8065;49.520;11.284;2022-11-15T06:16:01;97199.44;;;7.14;91.45
15932;BME280;8065;49.520;11.284;2022-11-15T06:18:31;97203.53;;;7.20;90.80
15932;BME280;8065;49.520;11.284;2022-11-15T06:20:59;97202.88;;;7.14;90.64
15932;BME280;8065;49.520;11.284;2022-11-15T06:23:26;97203.06;;;7.18;90.60
15932;BME280;8065;49.520;11.284;2022-11-15T06:25:53;97205.81;;;7.13;90.94
15932;BME280;8065;49.520;11.284;2022-11-15T06:28:20;97200.22;;;7.14;90.86
15932;BME280;8065;49.520;11.284;2022-11-15T06:30:46;97202.22;;;7.09;90.67
15932;BME280;8065;49.520;11.284;2022-11-15T06:33:12;97211.22;;;7.08;90.91
15932;BME280;8065;49.520;11.284;2022-11-15T06:35:40;97207.97;;;7.11;91.10
15932;BME280;8065;49.520;11.284;2022-11-15T06:38:08;97215.78;;;7.16;91.33
15932;BME280;8065;49.520;11.284;2022-11-15T06:40:36;97210.75;;;7.06;92.25
15932;BME280;8065;49.520;11.284;2022-11-15T06:43:04;97216.50;;;7.08;92.51
15932;BME280;8065;49.520;11.284;2022-11-15T06:45:31;97210.06;;;7.22;91.74
15932;BME280;8065;49.520;11.284;2022-11-15T06:47:58;97218.31;;;7.21;91.30
15932;BME280;8065;49.520;11.284;2022-11-15T06:50:25;97218.66;;;7.28;91.64
15932;BME280;8065;49.520;11.284;2022-11-15T06:52:53;97223.81;;;7.33;90.60
15932;BME280;8065;49.520;11.284;2022-11-15T06:55:19;97220.81;;;7.26;91.13
15932;BME280;8065;49.520;11.284;2022-11-15T06:57:47;97212.22;;;7.20;91.59
15932;BME280;8065;49.520;11.284;2022-11-15T07:00:14;97214.94;;;7.29;91.43
15932;BME280;8065;49.520;11.284;2022-11-15T07:02:41;97215.28;;;7.36;91.18
15932;BME280;8065;49.520;11.284;2022-11-15T07:05:09;97218.94;;;7.49;90.26
15932;BME280;8065;49.520;11.284;2022-11-15T07:07:36;97224.09;;;7.54;90.01
15932;BME280;8065;49.520;11.284;2022-11-15T07:10:05;97221.63;;;7.57;90.56
15932;BME280;8065;49.520;11.284;2022-11-15T07:12:32;97215.72;;;7.61;89.72
15932;BME280;8065;49.520;11.284;2022-11-15T07:14:59;97218.88;;;7.71;90.10
15932;BME280;8065;49.520;11.284;2022-11-15T07:17:25;97213.63;;;7.80;89.65
15932;BME280;8065;49.520;11.284;2022-11-15T07:19:51;97218.19;;;8.05;89.48
15932;BME280;8065;49.520;11.284;2022-11-15T07:22:18;97218.03;;;8.10;88.32
15932;BME280;8065;49.520;11.284;2022-11-15T07:24:44;97222.44;;;8.23;87.95
15932;BME280;8065;49.520;11.284;2022-11-15T07:27:12;97215.50;;;8.53;87.12
15932;BME280;8065;49.520;11.284;2022-11-15T07:29:39;97218.13;;;8.79;86.11
15932;BME280;8065;49.520;11.284;2022-11-15T07:32:05;97214.84;;;9.08;85.25
15932;BME280;8065;49.520;11.284;2022-11-15T07:34:32;97211.53;;;9.37;83.08
15932;BME280;8065;49.520;11.284;2022-11-15T07:36:58;97210.66;;;9.63;82.08
15932;BME280;8065;49.520;11.284;2022-11-15T07:39:25;97209.31;;;9.86;81.86
15932;BME280;8065;49.520;11.284;2022-11-15T07:41:51;97207.50;;;10.07;81.81
15932;BME280;8065;49.520;11.284;2022-11-15T07:44:39;97205.22;;;10.27;79.86
15932;BME280;8065;49.520;11.284;2022-11-15T07:47:06;97205.34;;;10.51;80.40
15932;BME280;8065;49.520;11.284;2022-11-15T07:49:32;97205.47;;;10.75;77.85
15932;BME280;8065;49.520;11.284;2022-11-15T07:51:59;97202.38;;;10.73;78.50
15932;BME280;8065;49.520;11.284;2022-11-15T07:54:25;97198.88;;;10.81;77.78
15932;BME280;8065;49.520;11.284;2022-11-15T07:56:52;97189.00;;;11.03;77.65
15932;BME280;8065;49.520;11.284;2022-11-15T07:59:18;97185.09;;;11.58;75.70
15932;BME280;8065;49.520;11.284;2022-11-15T08:01:46;97176.56;;;11.52;76.45
15932;BME280;8065;49.520;11.284;2022-11-15T08:04:13;97169.81;;;11.55;75.86
15932;BME280;8065;49.520;11.284;2022-11-15T08:06:40;97167.34;;;12.23;74.51
15932;BME280;8065;49.520;11.284;2022-11-15T08:09:06;97160.97;;;11.99;74.33
15932;BME280;8065;49.520;11.284;2022-11-15T08:11:33;97165.88;;;12.37;73.26
15932;BME280;8065;49.520;11.284;2022-11-15T08:13:59;97161.28;;;12.10;73.22
15932;BME280;8065;49.520;11.284;2022-11-15T08:16:26;97162.25;;;12.18;73.75
15932;BME280;8065;49.520;11.284;2022-11-15T08:18:53;97162.25;;;12.30;73.22
15932;BME280;8065;49.520;11.284;2022-11-15T08:21:20;97153.34;;;12.38;73.11
15932;BME280;8065;49.520;11.284;2022-11-15T08:23:47;97150.22;;;12.48;72.90
15932;BME280;8065;49.520;11.284;2022-11-15T08:26:13;97138.94;;;12.27;73.00
15932;BME280;8065;49.520;11.284;2022-11-15T08:28:40;97139.28;;;12.65;72.42
15932;BME280;8065;49.520;11.284;2022-11-15T08:31:06;97142.00;;;12.81;71.45
15932;BME280;8065;49.520;11.284;2022-11-15T08:33:35;97132.44;;;13.24;70.55
15932;BME280;8065;49.520;11.284;2022-11-15T08:36:04;97132.09;;;13.41;69.92
15932;BME280;8065;49.520;11.284;2022-11-15T08:38:30;97133.75;;;13.61;69.42
15932;BME280;8065;49.520;11.284;2022-11-15T08:41:01;97125.81;;;14.00;67.44
15932;BME280;8065;49.520;11.284;2022-11-15T08:43:28;97119.63;;;14.31;67.40
15932;BME280;8065;49.520;11.284;2022-11-15T08:45:55;97118.69;;;14.58;66.97
15932;BME280;8065;49.520;11.284;2022-11-15T08:48:22;97116.38;;;14.99;66.44
15932;BME280;8065;49.520;11.284;2022-11-15T08:50:51;97115.50;;;15.37;64.28
15932;BME280;8065;49.520;11.284;2022-11-15T08:53:20;97126.78;;;15.04;64.78
15932;BME280;8065;49.520;11.284;2022-11-15T08:55:47;97124.25;;;14.69;65.22
15932;BME280;8065;49.520;11.284;2022-11-15T08:58:14;97118.59;;;15.62;62.94
15932;BME280;8065;49.520;11.284;2022-11-15T09:00:40;97111.06;;;16.24;61.97
15932;BME280;8065;49.520;11.284;2022-11-15T09:03:07;97106.00;;;16.19;62.38
15932;BME280;8065;49.520;11.284;2022-11-15T09:05:35;97109.97;;;16.28;61.35
15932;BME280;8065;49.520;11.284;2022-11-15T09:08:02;97111.72;;;16.47;61.09
15932;BME280;8065;49.520;11.284;2022-11-15T09:10:30;97113.03;;;16.60;61.03
15932;BME280;8065;49.520;11.284;2022-11-15T09:12:57;97109.25;;;16.98;59.47
15932;BME280;8065;49.520;11.284;2022-11-15T09:15:23;97093.56;;;17.48;59.14
15932;BME280;8065;49.520;11.284;2022-11-15T09:17:50;97088.88;;;17.38;58.15
15932;BME280;8065;49.520;11.284;2022-11-15T09:20:16;97091.16;;;17.32;58.69
15932;BME280;8065;49.520;11.284;2022-11-15T09:22:43;97098.06;;;17.30;59.29
15932;BME280;8065;49.520;11.284;2022-11-15T09:25:09;97098.63;;;17.09;59.26
15932;BME280;8065;49.520;11.284;2022-11-15T09:27:37;97100.13;;;16.69;59.60
15932;BME280;8065;49.520;11.284;2022-11-15T09:30:04;97100.53;;;16.71;60.22
15932;BME280;8065;49.520;11.284;2022-11-15T09:32:31;97096.19;;;16.97;60.36
15932;BME280;8065;49.520;11.284;2022-11-15T09:34:58;97089.28;;;16.62;60.07
15932;BME280;8065;49.520;11.284;2022-11-15T09:37:24;97089.94;;;16.86;59.69
15932;BME280;8065;49.520;11.284;2022-11-15T09:39:51;97088.44;;;16.88;59.49
15932;BME280;8065;49.520;11.284;2022-11-15T09:42:42;97090.97;;;17.11;59.76
15932;BME280;8065;49.520;11.284;2022-11-15T09:45:17;97087.47;;;17.55;58.54
15932;BME280;8065;49.520;11.284;2022-11-15T09:48:00;97083.91;;;17.88;57.91
15932;BME280;8065;49.520;11.284;2022-11-15T09:50:36;97079.03;;;18.08;57.72
15932;BME280;8065;49.520;11.284;2022-11-15T09:53:03;97075.69;;;18.35;57.05
15932;BME280;8065;49.520;11.284;2022-11-15T09:55:35;97074.94;;;18.42;57.54
15932;BME280;8065;49.520;11.284;2022-11-15T09:58:17;97066.66;;;18.90;56.89
15932;BME280;8065;49.520;11.284;2022-11-15T10:00:47;97071.28;;;19.00;55.67
15932;BME280;8065;49.520;11.284;2022-11-15T10:03:22;97064.34;;;18.95;56.09
15932;BME280;8065;49.520;11.284;2022-11-15T10:05:52;97053.59;;;19.42;55.46
15932;BME280;8065;49.520;11.284;2022-11-15T10:08:31;97053.19;;;19.25;55.19
15932;BME280;8065;49.520;11.284;2022-11-15T10:11:03;97054.31;;;18.75;56.17
15932;BME280;8065;49.520;11.284;2022-11-15T10:13:36;97048.19;;;19.35;55.59
15932;BME280;8065;49.520;11.284;2022-11-15T10:16:12;97042.81;;;19.20;55.85
15932;BME280;8065;49.520;11.284;2022-11-15T10:18:49;97045.13;;;19.68;54.64
15932;BME280;8065;49.520;11.284;2022-11-15T10:21:21;97045.88;;;19.15;55.86
15932;BME280;8065;49.520;11.284;2022-11-15T10:23:48;97041.25;;;19.12;55.75
15932;BME280;8065;49.520;11.284;2022-11-15T10:26:16;97028.94;;;19.50;54.94
15932;BME280;8065;49.520;11.284;2022-11-15T10:28:44;97028.94;;;19.47;55.55
15932;BME280;8065;49.520;11.284;2022-11-15T10:31:22;97022.75;;;19.85;54.69
15932;BME280;8065;49.520;11.284;2022-11-15T10:33:51;97013.41;;;20.01;54.02
15932;BME280;8065;49.520;11.284;2022-11-15T10:36:20;97025.84;;;18.74;56.72
15932;BME280;8065;49.520;11.284;2022-11-15T10:38:58;97020.50;;;19.02;56.92
15932;BME280;8065;49.520;11.284;2022-11-15T10:41:38;97013.94;;;18.75;56.50
15932;BME280;8065;49.520;11.284;2022-11-15T10:44:25;97007.31;;;18.54;56.98
15932;BME280;8065;49.520;11.284;2022-11-15T10:47:21;96996.25;;;18.95;56.50
15932;BME280;8065;49.520;11.284;2022-11-15T10:49:57;96988.91;;;19.42;55.64
15932;BME280;8065;49.520;11.284;2022-11-15T10:52:24;96993.41;;;19.94;55.34
15932;BME280;8065;49.520;11.284;2022-11-15T10:54:54;96976.56;;;19.62;55.33
15932;BME280;8065;49.520;11.284;2022-11-15T10:57:23;96972.91;;;20.11;54.52
15932;BME280;8065;49.520;11.284;2022-11-15T10:59:54;96978.03;;;19.88;54.34
15932;BME280;8065;49.520;11.284;2022-11-15T11:02:31;96969.50;;;20.00;54.31
15932;BME280;8065;49.520;11.284;2022-11-15T11:04:58;96965.84;;;21.42;52.30
15932;BME280;8065;49.520;11.284;2022-11-15T11:07:27;96969.47;;;21.29;52.88
15932;BME280;8065;49.520;11.284;2022-11-15T11:10:00;96962.88;;;21.67;51.33
15932;BME280;8065;49.520;11.284;2022-11-15T11:12:28;96956.56;;;21.77;51.45
15932;BME280;8065;49.520;11.284;2022-11-15T11:14:59;96960.03;;;21.44;50.85
15932;BME280;8065;49.520;11.284;2022-11-15T11:17:32;96960.19;;;21.30;51.83
15932;BME280;8065;49.520;11.284;2022-11-15T11:20:06;96957.34;;;21.44;51.04
15932;BME280;8065;49.520;11.284;2022-11-15T11:22:42;96955.81;;;21.77;51.13
15932;BME280;8065;49.520;11.284;2022-11-15T11:25:22;96947.09;;;21.24;51.10
15932;BME280;8065;49.520;11.284;2022-11-15T11:28:02;96946.97;;;21.39;51.02
15932;BME280;8065;49.520;11.284;2022-11-15T11:30:41;96946.63;;;21.67;50.68
15932;BME280;8065;49.520;11.284;2022-11-15T11:33:16;96939.41;;;21.19;51.40
15932;BME280;8065;49.520;11.284;2022-11-15T11:35:50;96941.56;;;21.39;51.10
15932;BME280;8065;49.520;11.284;2022-11-15T11:38:32;96936.03;;;21.49;51.34
15932;BME280;8065;49.520;11.284;2022-11-15T11:41:06;96928.41;;;20.96;52.04
15932;BME280;8065;49.520;11.284;2022-11-15T11:43:44;96931.13;;;20.92;52.21
15932;BME280;8065;49.520;11.284;2022-11-15T11:46:26;96934.53;;;21.45;51.75
15932;BME280;8065;49.520;11.284;2022-11-15T11:49:01;96918.56;;;21.16;52.02
15932;BME280;8065;49.520;11.284;2022-11-15T11:51:34;96912.81;;;20.73;52.41
15932;BME280;8065;49.520;11.284;2022-11-15T11:54:06;96905.97;;;20.58;53.12
15932;BME280;8065;49.520;11.284;2022-11-15T11:56:39;96901.13;;;20.83;52.38
15932;BME280;8065;49.520;11.284;2022-11-15T11:59:10;96904.00;;;20.66;52.64
15932;BME280;8065;49.520;11.284;2022-11-15T12:01:42;96904.84;;;20.55;53.25
15932;BME280;8065;49.520;11.284;2022-11-15T12:04:13;96898.03;;;20.81;52.57
15932;BME280;8065;49.520;11.284;2022-11-15T12:06:44;96900.22;;;20.97;53.19
15932;BME280;8065;49.520;11.284;2022-11-15T12:09:15;96895.63;;;20.94;52.82
15932;BME280;8065;49.520;11.284;2022-11-15T12:11:50;96892.56;;;20.92;52.48
15932;BME280;8065;49.520;11.284;2022-11-15T12:14:26;96892.66;;;20.81;53.23
15932;BME280;8065;49.520;11.284;2022-11-15T12:16:56;96887.81;;;21.03;53.14
15932;BME280;8065;49.520;11.284;2022-11-15T12:19:23;96885.88;;;20.63;53.58
15932;BME280;8065;49.520;11.284;2022-11-15T12:21:54;96889.84;;;20.47;54.00
15932;BME280;8065;49.520;11.284;2022-11-15T12:24:26;96883.72;;;20.43;53.44
15932;BME280;8065;49.520;11.284;2022-11-15T12:26:57;96875.13;;;20.55;53.64
15932;BME280;8065;49.520;11.284;2022-11-15T12:29:31;96874.41;;;20.51;53.50
15932;BME280;8065;49.520;11.284;2022-11-15T12:31:59;96869.78;;;20.48;53.20
15932;BME280;8065;49.520;11.284;2022-11-15T12:34:38;96873.19;;;20.59;52.83
15932;BME280;8065;49.520;11.284;2022-11-15T12:40:36;96869.69;;;20.63;53.06
15932;BME280;8065;49.520;11.284;2022-11-15T12:46:04;96871.75;;;20.89;52.86
15932;BME280;8065;49.520;11.284;2022-11-15T12:48:57;96870.63;;;20.83;53.10
15932;BME280;8065;49.520;11.284;2022-11-15T12:55:01;96861.91;;;20.68;53.69
15932;BME280;8065;49.520;11.284;2022-11-15T12:57:39;96861.16;;;20.68;53.45
15932;BME280;8065;49.520;11.284;2022-11-15T13:03:27;96854.28;;;20.59;52.96
15932;BME280;8065;49.520;11.284;2022-11-15T13:06:04;96852.06;;;20.47;54.00
15932;BME280;8065;49.520;11.284;2022-11-15T13:08:43;96851.25;;;20.50;54.02
15932;BME280;8065;49.520;11.284;2022-11-15T13:11:44;96839.84;;;20.25;54.31
15932;BME280;8065;49.520;11.284;2022-11-15T13:14:40;96837.81;;;19.84;54.99
15932;BME280;8065;49.520;11.284;2022-11-15T13:17:18;96837.59;;;20.16;54.04
15932;BME280;8065;49.520;11.284;2022-11-15T13:19:53;96833.28;;;20.29;54.51
15932;BME280;8065;49.520;11.284;2022-11-15T13:22:25;96839.00;;;20.35;53.91
15932;BME280;8065;49.520;11.284;2022-11-15T13:25:17;96842.28;;;20.09;54.33
15932;BME280;8065;49.520;11.284;2022-11-15T13:27:46;96838.47;;;20.03;54.67
15932;BME280;8065;49.520;11.284;2022-11-15T13:30:19;96840.28;;;20.20;54.96
15932;BME280;8065;49.520;11.284;2022-11-15T13:32:46;96835.06;;;20.50;54.17
15932;BME280;8065;49.520;11.284;2022-11-15T13:35:19;96824.28;;;20.50;54.06